Time,TemperatureF,DewpointF,PressureIn,WindDirection,WindDirectionDegrees,WindSpeedMPH,WindSpeedGustMPH,Humidity,HourlyPrecipIn,Conditions,Clouds,dailyrainin,SoftwareType,DateUTC
2013-04-14 00:02:00,71.8,70.9,29.90,SW,225,0.7,1.6,97,0.00,,,0.00,pywws,2013-04-13 14:02:00,
2013-04-14 00:12:00,71.6,70.7,29.90,SW,225,0.0,0.7,97,0.00,,,0.00,pywws,2013-04-13 14:12:00,
2013-04-14 00:17:00,71.6,70.7,29.89,West,270,0.0,0.7,97,0.00,,,0.00,pywws,2013-04-13 14:17:00,
2013-04-14 00:23:00,71.2,70.6,29.89,South,180,0.0,0.0,98,0.00,,,0.00,pywws,2013-04-13 14:23:00,
2013-04-14 00:33:00,71.2,70.6,29.89,West,270,0.0,0.0,98,0.00,,,0.00,pywws,2013-04-13 14:33:00,
2013-04-14 00:42:00,71.1,70.5,29.89,SW,225,0.0,0.7,98,0.00,,,0.00,pywws,2013-04-13 14:42:00,
2013-04-14 00:52:00,71.1,70.5,29.89,SW,225,0.0,0.7,98,0.00,,,0.00,pywws,2013-04-13 14:52:00,
2013-04-14 01:02:00,70.9,70.3,29.88,SW,225,0.0,0.7,98,0.00,,,0.00,pywws,2013-04-13 15:02:00,
2013-04-14 01:07:00,70.9,70.3,29.88,SW,225,0.0,0.7,98,0.00,,,0.00,pywws,2013-04-13 15:07:00,
2013-04-14 01:12:00,70.9,70.3,29.88,SW,225,0.0,0.7,98,0.00,,,0.00,pywws,2013-04-13 15:12:00,
2013-04-14 01:22:00,70.7,70.1,29.88,SW,225,0.0,0.0,98,0.00,,,0.00,pywws,2013-04-13 15:22:00,
2013-04-14 01:32:00,70.7,70.1,29.88,SW,225,0.0,0.7,98,0.00,,,0.00,pywws,2013-04-13 15:32:00,
2013-04-14 01:42:00,70.7,70.1,29.87,West,270,0.0,0.0,98,0.00,,,0.00,pywws,2013-04-13 15:42:00,
2013-04-14 01:52:00,70.7,70.1,29.88,SE,135,0.0,0.0,98,0.00,,,0.00,pywws,2013-04-13 15:52:00,
2013-04-14 02:02:00,70.7,70.1,29.88,SW,225,0.0,0.7,98,0.00,,,0.00,pywws,2013-04-13 16:02:00,
2013-04-14 02:07:00,70.7,70.1,29.87,SW,225,0.0,0.0,98,0.00,,,0.00,pywws,2013-04-13 16:07:00,
2013-04-14 02:12:00,70.7,70.1,29.87,SW,225,0.0,0.0,98,0.00,,,0.00,pywws,2013-04-13 16:12:00,
2013-04-14 02:22:00,70.7,70.1,29.87,SW,225,0.0,0.7,98,0.00,,,0.00,pywws,2013-04-13 16:22:00,
2013-04-14 02:32:00,71.1,70.5,29.87,South,180,0.0,0.0,98,0.00,,,0.00,pywws,2013-04-13 16:32:00,
2013-04-14 02:42:00,71.1,70.5,29.87,West,270,0.0,0.7,98,0.00,,,0.00,pywws,2013-04-13 16:42:00,
2013-04-14 02:47:00,71.1,70.5,29.87,West,270,0.0,0.7,98,0.00,,,0.00,pywws,2013-04-13 16:47:00,
2013-04-14 02:52:00,71.1,70.5,29.87,West,270,0.0,0.7,98,0.00,,,0.00,pywws,2013-04-13 16:52:00,
2013-04-14 03:02:00,70.9,70.3,29.87,SW,225,0.0,0.0,98,0.00,,,0.00,pywws,2013-04-13 17:02:00,
2013-04-14 03:07:00,70.9,70.3,29.87,SW,225,0.0,0.0,98,0.00,,,0.00,pywws,2013-04-13 17:07:00,
2013-04-14 03:13:00,70.9,70.3,29.87,West,270,0.0,0.0,98,0.00,,,0.00,pywws,2013-04-13 17:13:00,
2013-04-14 03:22:00,70.9,70.3,29.87,South,180,0.0,0.0,98,0.00,,,0.00,pywws,2013-04-13 17:22:00,
2013-04-14 03:32:00,70.9,70.3,29.87,SW,225,0.0,0.0,98,0.00,,,0.00,pywws,2013-04-13 17:32:00,
2013-04-14 03:42:00,70.9,70.3,29.87,SW,225,0.0,0.0,98,0.00,,,0.00,pywws,2013-04-13 17:42:00,
2013-04-14 03:52:00,70.7,70.1,29.88,SW,225,0.0,0.0,98,0.00,,,0.00,pywws,2013-04-13 17:52:00,
2013-04-14 04:02:00,70.5,69.9,29.88,SW,225,0.0,0.0,98,0.00,,,0.00,pywws,2013-04-13 18:02:00,
2013-04-14 04:12:00,70.5,69.9,29.87,SW,225,0.0,0.0,98,0.00,,,0.00,pywws,2013-04-13 18:12:00,
2013-04-14 04:18:00,70.5,69.9,29.88,SW,225,0.0,0.0,98,0.00,,,0.00,pywws,2013-04-13 18:18:00,
2013-04-14 04:23:00,70.5,69.9,29.88,SW,225,0.0,0.0,98,0.00,,,0.00,pywws,2013-04-13 18:23:00,
2013-04-14 04:27:00,70.5,69.9,29.88,SW,225,0.0,0.0,98,0.00,,,0.00,pywws,2013-04-13 18:27:00,
2013-04-14 04:32:00,70.5,69.9,29.87,SW,225,0.0,0.0,98,0.00,,,0.00,pywws,2013-04-13 18:32:00,
2013-04-14 04:33:00,70.5,69.9,29.87,SW,225,0.0,0.0,98,0.00,,,0.00,pywws,2013-04-13 18:33:00,
2013-04-14 04:35:00,70.5,69.9,29.87,SW,225,0.0,0.0,98,0.00,,,0.00,pywws,2013-04-13 18:35:00,
2013-04-14 04:42:00,70.5,69.9,29.88,SW,225,0.0,0.0,98,0.00,,,0.00,pywws,2013-04-13 18:42:00,
2013-04-14 04:52:00,70.3,69.7,29.88,SW,225,0.0,0.0,98,0.00,,,0.00,pywws,2013-04-13 18:52:00,
2013-04-14 05:02:00,70.3,69.7,29.88,SW,225,0.0,0.0,98,0.00,,,0.00,pywws,2013-04-13 19:02:00,
2013-04-14 05:12:00,70.2,69.6,29.88,SW,225,0.0,0.0,98,0.00,,,0.00,pywws,2013-04-13 19:12:00,
2013-04-14 05:22:00,70.2,69.6,29.88,SW,225,0.0,0.0,98,0.00,,,0.00,pywws,2013-04-13 19:22:00,
2013-04-14 05:32:00,70.2,69.6,29.88,SW,225,0.0,0.0,98,0.00,,,0.00,pywws,2013-04-13 19:32:00,
2013-04-14 05:42:00,70.2,69.6,29.89,SW,225,0.0,0.0,98,0.00,,,0.00,pywws,2013-04-13 19:42:00,
2013-04-14 05:52:00,70.0,69.4,29.89,SW,225,0.0,0.0,98,0.00,,,0.00,pywws,2013-04-13 19:52:00,
2013-04-14 06:02:00,70.0,69.4,29.90,SW,225,0.0,0.0,98,0.00,,,0.00,pywws,2013-04-13 20:02:00,
2013-04-14 06:13:00,70.0,69.4,29.90,SW,225,0.0,0.0,98,0.00,,,0.00,pywws,2013-04-13 20:13:00,
2013-04-14 06:22:00,70.0,69.4,29.90,SW,225,0.0,0.0,98,0.00,,,0.00,pywws,2013-04-13 20:22:00,
2013-04-14 06:32:00,70.0,69.4,29.91,SW,225,0.0,0.0,98,0.00,,,0.00,pywws,2013-04-13 20:32:00,
2013-04-14 06:42:00,70.0,69.4,29.91,SW,225,0.0,0.0,98,0.00,,,0.00,pywws,2013-04-13 20:42:00,
2013-04-14 06:52:00,70.3,69.7,29.91,SW,225,0.0,0.0,98,0.00,,,0.00,pywws,2013-04-13 20:52:00,
2013-04-14 07:02:00,71.1,70.5,29.92,West,270,0.0,0.7,98,0.00,,,0.00,pywws,2013-04-13 21:02:00,
2013-04-14 07:12:00,72.0,71.1,29.92,South,180,0.0,0.0,97,0.00,,,0.00,pywws,2013-04-13 21:12:00,
2013-04-14 07:22:00,74.3,74.0,29.92,North,0,0.0,1.6,99,0.00,,,0.00,pywws,2013-04-13 21:22:00,
2013-04-14 07:32:00,76.5,75.9,29.92,North,0,0.7,2.2,98,0.00,,,0.00,pywws,2013-04-13 21:32:00,
2013-04-14 07:42:00,79.3,76.5,29.92,SW,225,0.0,0.7,91,0.00,,,0.00,pywws,2013-04-13 21:42:00,
2013-04-14 07:52:00,82.2,76.9,29.93,NW,315,0.0,0.7,84,0.00,,,0.00,pywws,2013-04-13 21:52:00,
2013-04-14 08:02:00,82.0,75.6,29.93,North,0,0.7,3.1,81,0.00,,,0.00,pywws,2013-04-13 22:02:00,
2013-04-14 08:12:00,81.9,75.8,29.94,East,90,1.6,2.2,82,0.00,,,0.00,pywws,2013-04-13 22:12:00,
2013-04-14 08:22:00,84.0,77.5,29.93,SE,135,0.0,1.6,81,0.00,,,0.00,pywws,2013-04-13 22:22:00,
2013-04-14 08:32:00,85.1,77.1,29.93,WSW,248,0.0,0.7,77,0.00,,,0.00,pywws,2013-04-13 22:32:00,
2013-04-14 08:42:00,86.5,77.6,29.93,NE,45,0.7,3.1,75,0.00,,,0.00,pywws,2013-04-13 22:42:00,
2013-04-14 08:52:00,85.8,77.4,29.93,NE,45,0.7,3.1,76,0.00,,,0.00,pywws,2013-04-13 22:52:00,
2013-04-14 09:02:00,85.5,77.0,29.93,NNE,22,2.2,6.0,76,0.00,,,0.00,pywws,2013-04-13 23:02:00,
2013-04-14 09:12:00,84.9,76.5,29.93,East,90,3.1,4.5,76,0.00,,,0.00,pywws,2013-04-13 23:12:00,
2013-04-14 09:22:00,84.0,76.0,29.93,NE,45,2.2,4.5,77,0.00,,,0.00,pywws,2013-04-13 23:22:00,
2013-04-14 09:32:00,84.2,75.8,29.93,North,0,1.6,3.1,76,0.00,,,0.00,pywws,2013-04-13 23:32:00,
2013-04-14 09:42:00,85.5,76.2,29.92,NE,45,2.2,4.5,74,0.00,,,0.00,pywws,2013-04-13 23:42:00,
2013-04-14 09:52:00,85.5,76.2,29.92,NE,45,3.1,4.5,74,0.00,,,0.00,pywws,2013-04-13 23:52:00,
2013-04-14 10:02:00,86.7,77.0,29.92,NE,45,3.1,4.5,73,0.00,,,0.00,pywws,2013-04-14 00:02:00,
2013-04-14 10:12:00,87.8,77.2,29.92,ENE,68,5.4,6.9,71,0.00,,,0.00,pywws,2013-04-14 00:12:00,
2013-04-14 10:22:00,87.6,76.6,29.92,NE,45,4.5,7.6,70,0.00,,,0.00,pywws,2013-04-14 00:22:00,
2013-04-14 10:32:00,87.4,76.9,29.91,NE,45,3.8,6.9,71,0.00,,,0.00,pywws,2013-04-14 00:32:00,
2013-04-14 10:42:00,88.2,77.5,29.91,NE,45,3.8,6.0,71,0.00,,,0.00,pywws,2013-04-14 00:42:00,
2013-04-14 10:52:00,87.8,76.8,29.91,NE,45,6.0,6.9,70,0.00,,,0.00,pywws,2013-04-14 00:52:00,
2013-04-14 11:02:00,89.1,78.0,29.90,NE,45,4.5,7.6,70,0.00,,,0.00,pywws,2013-04-14 01:02:00,
2013-04-14 11:12:00,89.2,77.7,29.90,NE,45,6.0,8.3,69,0.00,,,0.00,pywws,2013-04-14 01:12:00,
2013-04-14 11:22:00,88.9,77.4,29.89,East,90,4.5,6.0,69,0.00,,,0.00,pywws,2013-04-14 01:22:00,
2013-04-14 11:32:00,89.1,77.5,29.89,NE,45,4.5,6.9,69,0.00,,,0.00,pywws,2013-04-14 01:32:00,
2013-04-14 11:42:00,90.3,78.3,29.88,North,0,4.5,6.9,68,0.00,,,0.00,pywws,2013-04-14 01:42:00,
2013-04-14 11:52:00,89.4,77.4,29.88,NNE,22,3.8,5.4,68,0.00,,,0.00,pywws,2013-04-14 01:52:00,
2013-04-14 12:02:00,90.0,77.9,29.87,North,0,4.5,6.9,68,0.00,,,0.00,pywws,2013-04-14 02:02:00,
2013-04-14 12:12:00,90.0,77.5,29.87,NE,45,5.4,7.6,67,0.00,,,0.00,pywws,2013-04-14 02:12:00,
2013-04-14 12:22:00,89.8,76.9,29.86,NE,45,5.4,9.2,66,0.00,,,0.00,pywws,2013-04-14 02:22:00,
2013-04-14 12:32:00,88.3,77.3,29.86,NE,45,3.8,5.4,70,0.00,,,0.00,pywws,2013-04-14 02:32:00,
2013-04-14 12:42:00,86.9,77.2,29.86,NE,45,0.0,1.6,73,0.00,,,0.00,pywws,2013-04-14 02:42:00,
2013-04-14 12:52:00,89.4,77.9,29.85,North,0,1.6,3.8,69,0.00,,,0.00,pywws,2013-04-14 02:52:00,
2013-04-14 13:02:00,89.8,77.8,29.85,North,0,5.4,7.6,68,0.00,,,0.00,pywws,2013-04-14 03:02:00,
2013-04-14 13:12:00,90.5,77.6,29.84,SW,225,3.8,6.9,66,0.00,,,0.00,pywws,2013-04-14 03:12:00,
2013-04-14 13:22:00,86.7,77.0,29.83,NNE,22,3.1,6.0,73,0.00,,,0.00,pywws,2013-04-14 03:22:00,
2013-04-14 13:32:00,88.5,77.5,29.83,East,90,3.1,6.0,70,0.00,,,0.00,pywws,2013-04-14 03:32:00,
2013-04-14 13:42:00,90.1,77.7,29.83,NE,45,4.5,6.9,67,0.00,,,0.00,pywws,2013-04-14 03:42:00,
2013-04-14 13:52:00,89.8,76.9,29.82,North,0,3.8,6.0,66,0.00,,,0.00,pywws,2013-04-14 03:52:00,
2013-04-14 14:02:00,90.1,77.7,29.82,NE,45,5.4,7.6,67,0.00,,,0.00,pywws,2013-04-14 04:02:00,
2013-04-14 14:03:00,90.3,77.4,29.81,NE,45,3.8,6.0,66,0.00,,,0.00,pywws,2013-04-14 04:03:00,
2013-04-14 14:04:00,89.8,77.3,29.81,NE,45,8.3,9.8,67,0.00,,,0.00,pywws,2013-04-14 04:04:00,
2013-04-14 14:12:00,87.6,77.0,29.81,NE,45,2.2,6.9,71,0.00,,,0.00,pywws,2013-04-14 04:12:00,
2013-04-14 14:22:00,87.1,77.3,29.81,WSW,248,1.6,3.1,73,0.00,,,0.00,pywws,2013-04-14 04:22:00,
2013-04-14 14:32:00,88.2,78.0,29.80,NE,45,1.6,3.1,72,0.00,,,0.00,pywws,2013-04-14 04:32:00,
2013-04-14 14:42:00,88.3,76.8,29.80,NNE,22,3.8,6.9,69,0.00,,,0.00,pywws,2013-04-14 04:42:00,
2013-04-14 14:52:00,88.9,76.9,29.80,East,90,3.8,7.6,68,0.00,,,0.00,pywws,2013-04-14 04:52:00,
2013-04-14 15:02:00,86.2,76.5,29.80,East,90,3.8,6.0,73,0.00,,,0.00,pywws,2013-04-14 05:02:00,
2013-04-14 15:12:00,86.0,76.3,29.80,NE,45,3.1,3.8,73,0.00,,,0.00,pywws,2013-04-14 05:12:00,
2013-04-14 15:22:00,85.6,76.8,29.80,NE,45,3.8,6.0,75,0.00,,,0.00,pywws,2013-04-14 05:22:00,
2013-04-14 15:32:00,87.8,78.0,29.80,East,90,1.6,3.1,73,0.00,,,0.00,pywws,2013-04-14 05:32:00,
2013-04-14 15:42:00,90.7,77.7,29.79,North,0,1.6,3.8,66,0.00,,,0.00,pywws,2013-04-14 05:42:00,
2013-04-14 15:52:00,89.2,77.7,29.80,North,0,1.6,3.8,69,0.00,,,0.00,pywws,2013-04-14 05:52:00,
2013-04-14 16:02:00,88.5,77.9,29.80,South,180,0.0,1.6,71,0.00,,,0.00,pywws,2013-04-14 06:02:00,
2013-04-14 16:12:00,86.9,76.8,29.80,North,0,0.7,4.5,72,0.00,,,0.00,pywws,2013-04-14 06:12:00,
2013-04-14 16:22:00,87.1,76.1,29.80,North,0,2.2,4.5,70,0.00,,,0.00,pywws,2013-04-14 06:22:00,
2013-04-14 16:32:00,87.8,75.9,29.79,WNW,292,1.6,4.5,68,0.00,,,0.00,pywws,2013-04-14 06:32:00,
2013-04-14 16:42:00,86.5,75.1,29.80,NE,45,2.2,4.5,69,0.00,,,0.00,pywws,2013-04-14 06:42:00,
2013-04-14 16:52:00,86.4,76.2,29.80,West,270,0.0,0.7,72,0.00,,,0.00,pywws,2013-04-14 06:52:00,
2013-04-14 17:02:00,85.3,76.0,29.80,NE,45,3.8,5.4,74,0.00,,,0.00,pywws,2013-04-14 07:02:00,
2013-04-14 17:12:00,82.8,75.2,29.80,NNW,338,0.0,0.7,78,0.00,,,0.00,pywws,2013-04-14 07:12:00,
2013-04-14 17:22:00,81.7,75.3,29.80,East,90,2.2,3.8,81,0.00,,,0.00,pywws,2013-04-14 07:22:00,
2013-04-14 17:32:00,81.0,74.6,29.80,ENE,68,3.1,5.4,81,0.00,,,0.00,pywws,2013-04-14 07:32:00,
2013-04-14 17:42:00,80.4,74.8,29.81,NE,45,2.2,3.8,83,0.00,,,0.00,pywws,2013-04-14 07:42:00,
2013-04-14 17:52:00,79.5,75.0,29.81,South,180,0.0,0.0,86,0.00,,,0.00,pywws,2013-04-14 07:52:00,
2013-04-14 18:02:00,78.3,74.7,29.82,SW,225,0.0,0.7,89,0.00,,,0.00,pywws,2013-04-14 08:02:00,
2013-04-14 18:12:00,77.4,74.5,29.82,SW,225,0.0,0.7,91,0.00,,,0.00,pywws,2013-04-14 08:12:00,
2013-04-14 18:22:00,76.6,74.5,29.83,South,180,0.0,0.0,93,0.00,,,0.00,pywws,2013-04-14 08:22:00,
2013-04-14 18:32:00,77.0,74.5,29.84,South,180,0.0,0.0,92,0.00,,,0.00,pywws,2013-04-14 08:32:00,
2013-04-14 18:42:00,76.5,74.6,29.83,SW,225,0.0,0.0,94,0.00,,,0.00,pywws,2013-04-14 08:42:00,
2013-04-14 18:52:00,75.7,73.9,29.84,South,180,0.0,0.7,94,0.00,,,0.00,pywws,2013-04-14 08:52:00,
2013-04-14 19:02:00,75.7,74.2,29.84,SW,225,0.0,0.7,95,0.00,,,0.00,pywws,2013-04-14 09:02:00,
2013-04-14 19:12:00,75.4,73.8,29.85,SW,225,0.0,0.7,95,0.00,,,0.00,pywws,2013-04-14 09:12:00,
2013-04-14 19:22:00,75.0,74.1,29.85,West,270,0.0,0.7,97,0.00,,,0.00,pywws,2013-04-14 09:22:00,
2013-04-14 19:32:00,75.9,74.4,29.85,NE,45,1.6,3.8,95,0.00,,,0.00,pywws,2013-04-14 09:32:00,
2013-04-14 19:42:00,76.6,74.8,29.86,NE,45,0.7,2.2,94,0.00,,,0.00,pywws,2013-04-14 09:42:00,
2013-04-14 19:52:00,76.8,74.6,29.87,NE,45,0.7,2.2,93,0.00,,,0.00,pywws,2013-04-14 09:52:00,
2013-04-14 20:02:00,77.4,73.5,29.88,North,0,0.7,2.2,88,0.00,,,0.00,pywws,2013-04-14 10:02:00,
2013-04-14 20:12:00,77.4,73.2,29.88,NE,45,0.0,1.6,87,0.00,,,0.00,pywws,2013-04-14 10:12:00,
2013-04-14 20:22:00,76.6,73.8,29.89,West,270,0.0,0.0,91,0.00,,,0.00,pywws,2013-04-14 10:22:00,
2013-04-14 20:32:00,75.2,73.3,29.89,SW,225,0.0,0.0,94,0.00,,,0.00,pywws,2013-04-14 10:32:00,
2013-04-14 20:42:00,74.5,72.9,29.90,SW,225,0.0,0.7,95,0.00,,,0.00,pywws,2013-04-14 10:42:00,
2013-04-14 20:52:00,74.1,72.9,29.90,SW,225,0.0,0.7,96,0.00,,,0.00,pywws,2013-04-14 10:52:00,
2013-04-14 21:02:00,73.9,73.0,29.90,SW,225,0.0,0.7,97,0.00,,,0.00,pywws,2013-04-14 11:02:00,
2013-04-14 21:12:00,73.8,72.9,29.91,SW,225,0.0,0.7,97,0.00,,,0.00,pywws,2013-04-14 11:12:00,
2013-04-14 21:22:00,73.4,72.5,29.91,SW,225,0.0,0.7,97,0.00,,,0.00,pywws,2013-04-14 11:22:00,
2013-04-14 21:32:00,73.2,72.3,29.91,SW,225,0.0,0.0,97,0.00,,,0.00,pywws,2013-04-14 11:32:00,
2013-04-14 21:42:00,73.0,72.1,29.91,SW,225,0.0,0.0,97,0.00,,,0.00,pywws,2013-04-14 11:42:00,
2013-04-14 21:52:00,72.7,71.8,29.91,SW,225,0.0,0.0,97,0.00,,,0.00,pywws,2013-04-14 11:52:00,
2013-04-14 22:02:00,72.7,71.8,29.91,South,180,0.0,0.7,97,0.00,,,0.00,pywws,2013-04-14 12:02:00,
2013-04-14 22:12:00,72.7,71.8,29.91,South,180,0.0,0.7,97,0.00,,,0.00,pywws,2013-04-14 12:12:00,
2013-04-14 22:22:00,72.5,71.6,29.91,SE,135,0.0,0.7,97,0.00,,,0.00,pywws,2013-04-14 12:22:00,
2013-04-14 22:32:00,72.7,71.8,29.91,North,0,0.0,0.7,97,0.00,,,0.00,pywws,2013-04-14 12:32:00,
2013-04-14 22:42:00,72.9,72.0,29.91,SE,135,0.0,1.6,97,0.00,,,0.00,pywws,2013-04-14 12:42:00,
2013-04-14 22:52:00,74.7,73.4,29.91,South,180,0.0,1.6,96,0.00,,,0.00,pywws,2013-04-14 12:52:00,
2013-04-14 23:02:00,74.1,72.9,29.90,South,180,0.0,0.0,96,0.00,,,0.00,pywws,2013-04-14 13:02:00,
2013-04-14 23:12:00,73.2,71.7,29.91,South,180,0.0,0.7,95,0.00,,,0.00,pywws,2013-04-14 13:12:00,
2013-04-14 23:22:00,72.7,71.2,29.91,SW,225,0.0,0.7,95,0.00,,,0.00,pywws,2013-04-14 13:22:00,
2013-04-14 23:32:00,72.3,71.1,29.91,SW,225,0.7,1.6,96,0.00,,,0.00,pywws,2013-04-14 13:32:00,
2013-04-14 23:42:00,72.1,71.2,29.91,West,270,0.0,0.7,97,0.00,,,0.00,pywws,2013-04-14 13:42:00,
2013-04-14 23:52:00,72.0,71.1,29.91,West,270,0.0,0.7,97,0.00,,,0.00,pywws,2013-04-14 13:52:00,